sensor_id;sensor_type;location;lat;lon;timestamp;temperature;humidity
45096;DHT22;30858;51.108;8.068;2022-07-10T00:01:47;13.40;99.90
45096;DHT22;30858;51.108;8.068;2022-07-10T00:04:13;13.30;99.90
45096;DHT22;30858;51.108;8.068;2022-07-10T00:06:39;13.30;99.90
45096;DHT22;30858;51.108;8.068;2022-07-10T00:09:07;13.20;99.90
45096;DHT22;30858;51.108;8.068;2022-07-10T00:11:33;13.20;99.90
45096;DHT22;30858;51.108;8.068;2022-07-10T00:13:58;13.20;99.90
45096;DHT22;30858;51.108;8.068;2022-07-10T00:16:24;13.10;99.90
45096;DHT22;30858;51.108;8.068;2022-07-10T00:18:50;13.10;99.90
45096;DHT22;30858;51.108;8.068;2022-07-10T00:21:16;13.10;99.90
45096;DHT22;30858;51.108;8.068;2022-07-10T00:23:42;13.00;99.90
45096;DHT22;30858;51.108;8.068;2022-07-10T00:26:08;13.00;99.90
45096;DHT22;30858;51.108;8.068;2022-07-10T00:28:34;13.00;99.90
45096;DHT22;30858;51.108;8.068;2022-07-10T00:31:02;13.00;99.90
45096;DHT22;30858;51.108;8.068;2022-07-10T00:33:27;13.00;99.90
45096;DHT22;30858;51.108;8.068;2022-07-10T00:35:53;13.00;99.90
45096;DHT22;30858;51.108;8.068;2022-07-10T00:38:19;12.90;99.90
45096;DHT22;30858;51.108;8.068;2022-07-10T00:40:44;12.90;99.90
45096;DHT22;30858;51.108;8.068;2022-07-10T00:43:10;12.80;99.90
45096;DHT22;30858;51.108;8.068;2022-07-10T00:45:36;12.80;99.90
45096;DHT22;30858;51.108;8.068;2022-07-10T00:48:01;12.80;99.90
45096;DHT22;30858;51.108;8.068;2022-07-10T00:50:28;12.80;99.90
45096;DHT22;30858;51.108;8.068;2022-07-10T00:52:54;12.80;99.90
45096;DHT22;30858;51.108;8.068;2022-07-10T00:55:20;12.80;99.90
45096;DHT22;30858;51.108;8.068;2022-07-10T00:57:46;12.80;99.90
45096;DHT22;30858;51.108;8.068;2022-07-10T01:00:12;12.80;99.90
45096;DHT22;30858;51.108;8.068;2022-07-10T01:02:43;12.70;99.90
45096;DHT22;30858;51.108;8.068;2022-07-10T01:05:09;12.80;99.90
45096;DHT22;30858;51.108;8.068;2022-07-10T01:07:35;12.70;99.90
45096;DHT22;30858;51.108;8.068;2022-07-10T01:10:03;12.70;99.90
45096;DHT22;30858;51.108;8.068;2022-07-10T01:12:29;12.70;99.90
45096;DHT22;30858;51.108;8.068;2022-07-10T01:14:55;12.70;99.90
45096;DHT22;30858;51.108;8.068;2022-07-10T01:17:21;12.60;99.90
45096;DHT22;30858;51.108;8.068;2022-07-10T01:19:48;12.60;99.90
45096;DHT22;30858;51.108;8.068;2022-07-10T01:22:13;12.60;99.90
45096;DHT22;30858;51.108;8.068;2022-07-10T01:24:39;12.60;99.90
45096;DHT22;30858;51.108;8.068;2022-07-10T01:27:05;12.60;99.90
45096;DHT22;30858;51.108;8.068;2022-07-10T01:29:30;12.60;99.90
45096;DHT22;30858;51.108;8.068;2022-07-10T01:31:56;12.50;99.90
45096;DHT22;30858;51.108;8.068;2022-07-10T01:34:25;12.50;99.90
45096;DHT22;30858;51.108;8.068;2022-07-10T01:36:50;12.50;99.90
45096;DHT22;30858;51.108;8.068;2022-07-10T01:39:16;12.50;99.90
45096;DHT22;30858;51.108;8.068;2022-07-10T01:41:41;12.50;99.90
45096;DHT22;30858;51.108;8.068;2022-07-10T01:44:07;12.50;99.90
45096;DHT22;30858;51.108;8.068;2022-07-10T01:46:33;12.50;99.90
45096;DHT22;30858;51.108;8.068;2022-07-10T01:48:58;12.50;99.90
45096;DHT22;30858;51.108;8.068;2022-07-10T01:51:24;12.50;99.90
45096;DHT22;30858;51.108;8.068;2022-07-10T01:53:49;12.50;99.90
45096;DHT22;30858;51.108;8.068;2022-07-10T01:56:16;12.50;99.90
45096;DHT22;30858;51.108;8.068;2022-07-10T01:58:42;12.50;99.90
45096;DHT22;30858;51.108;8.068;2022-07-10T02:01:08;12.50;99.90
45096;DHT22;30858;51.108;8.068;2022-07-10T02:03:34;12.50;99.90
45096;DHT22;30858;51.108;8.068;2022-07-10T02:06:18;12.50;99.90
45096;DHT22;30858;51.108;8.068;2022-07-10T02:08:44;12.60;99.90
45096;DHT22;30858;51.108;8.068;2022-07-10T02:11:09;12.50;99.90
45096;DHT22;30858;51.108;8.068;2022-07-10T02:13:37;12.50;99.90
45096;DHT22;30858;51.108;8.068;2022-07-10T02:16:03;12.50;99.90
45096;DHT22;30858;51.108;8.068;2022-07-10T02:18:29;12.50;99.90
45096;DHT22;30858;51.108;8.068;2022-07-10T02:20:54;12.50;99.90
45096;DHT22;30858;51.108;8.068;2022-07-10T02:23:20;12.50;99.90
45096;DHT22;30858;51.108;8.068;2022-07-10T02:25:46;12.60;99.90
45096;DHT22;30858;51.108;8.068;2022-07-10T02:28:11;12.60;99.90
45096;DHT22;30858;51.108;8.068;2022-07-10T02:30:37;12.50;99.90
45096;DHT22;30858;51.108;8.068;2022-07-10T02:33:02;12.50;99.90
45096;DHT22;30858;51.108;8.068;2022-07-10T02:35:28;12.50;99.90
45096;DHT22;30858;51.108;8.068;2022-07-10T02:37:54;12.50;99.90
45096;DHT22;30858;51.108;8.068;2022-07-10T02:40:19;12.50;99.90
45096;DHT22;30858;51.108;8.068;2022-07-10T02:42:45;12.50;99.90
45096;DHT22;30858;51.108;8.068;2022-07-10T02:45:10;12.40;99.90
45096;DHT22;30858;51.108;8.068;2022-07-10T02:47:36;12.40;99.90
45096;DHT22;30858;51.108;8.068;2022-07-10T02:50:02;12.40;99.90
45096;DHT22;30858;51.108;8.068;2022-07-10T02:52:28;12.40;99.90
45096;DHT22;30858;51.108;8.068;2022-07-10T02:54:56;12.30;99.90
45096;DHT22;30858;51.108;8.068;2022-07-10T02:57:22;12.30;99.90
45096;DHT22;30858;51.108;8.068;2022-07-10T02:59:47;12.30;99.90
45096;DHT22;30858;51.108;8.068;2022-07-10T03:02:13;12.40;99.90
45096;DHT22;30858;51.108;8.068;2022-07-10T03:04:38;12.30;99.90
45096;DHT22;30858;51.108;8.068;2022-07-10T03:07:04;12.40;99.90
45096;DHT22;30858;51.108;8.068;2022-07-10T03:09:30;12.30;99.90
45096;DHT22;30858;51.108;8.068;2022-07-10T03:11:55;12.30;99.90
45096;DHT22;30858;51.108;8.068;2022-07-10T03:14:21;12.30;99.90
45096;DHT22;30858;51.108;8.068;2022-07-10T03:16:47;12.30;99.90
45096;DHT22;30858;51.108;8.068;2022-07-10T03:19:12;12.30;99.90
45096;DHT22;30858;51.108;8.068;2022-07-10T03:21:38;12.20;99.90
45096;DHT22;30858;51.108;8.068;2022-07-10T03:24:03;12.30;99.90
45096;DHT22;30858;51.108;8.068;2022-07-10T03:26:29;12.30;99.90
45096;DHT22;30858;51.108;8.068;2022-07-10T03:28:55;12.30;99.90
45096;DHT22;30858;51.108;8.068;2022-07-10T03:31:22;12.30;99.90
45096;DHT22;30858;51.108;8.068;2022-07-10T03:33:47;12.30;99.90
45096;DHT22;30858;51.108;8.068;2022-07-10T03:36:13;12.40;99.90
45096;DHT22;30858;51.108;8.068;2022-07-10T03:38:39;12.40;99.90
45096;DHT22;30858;51.108;8.068;2022-07-10T03:41:05;12.30;99.90
45096;DHT22;30858;51.108;8.068;2022-07-10T03:43:31;12.40;99.90
45096;DHT22;30858;51.108;8.068;2022-07-10T03:45:58;12.30;99.90
45096;DHT22;30858;51.108;8.068;2022-07-10T03:48:24;12.30;99.90
45096;DHT22;30858;51.108;8.068;2022-07-10T03:50:50;12.40;99.90
45096;DHT22;30858;51.108;8.068;2022-07-10T03:53:16;12.30;99.90
45096;DHT22;30858;51.108;8.068;2022-07-10T03:55:42;12.40;99.90
45096;DHT22;30858;51.108;8.068;2022-07-10T03:58:07;12.40;99.90
45096;DHT22;30858;51.108;8.068;2022-07-10T04:00:33;12.40;99.90
45096;DHT22;30858;51.108;8.068;2022-07-10T04:03:02;12.30;99.90
45096;DHT22;30858;51.108;8.068;2022-07-10T04:05:28;12.30;99.90
45096;DHT22;30858;51.108;8.068;2022-07-10T04:07:55;12.30;99.90
45096;DHT22;30858;51.108;8.068;2022-07-10T04:10:22;12.30;99.90
45096;DHT22;30858;51.108;8.068;2022-07-10T04:12:48;12.30;99.90
45096;DHT22;30858;51.108;8.068;2022-07-10T04:15:14;12.30;99.90
45096;DHT22;30858;51.108;8.068;2022-07-10T04:17:40;12.30;99.90
45096;DHT22;30858;51.108;8.068;2022-07-10T04:20:06;12.30;99.90
45096;DHT22;30858;51.108;8.068;2022-07-10T04:22:32;12.30;99.90
45096;DHT22;30858;51.108;8.068;2022-07-10T04:24:57;12.40;99.90
45096;DHT22;30858;51.108;8.068;2022-07-10T04:27:23;12.40;99.90
45096;DHT22;30858;51.108;8.068;2022-07-10T04:29:49;12.40;99.90
45096;DHT22;30858;51.108;8.068;2022-07-10T04:32:15;12.50;99.90
45096;DHT22;30858;51.108;8.068;2022-07-10T04:34:41;12.50;99.90
45096;DHT22;30858;51.108;8.068;2022-07-10T04:37:06;12.50;99.90
45096;DHT22;30858;51.108;8.068;2022-07-10T04:39:38;12.60;99.90
45096;DHT22;30858;51.108;8.068;2022-07-10T04:42:07;12.60;99.90
45096;DHT22;30858;51.108;8.068;2022-07-10T04:44:34;12.60;99.90
45096;DHT22;30858;51.108;8.068;2022-07-10T04:47:00;12.60;99.90
45096;DHT22;30858;51.108;8.068;2022-07-10T04:49:26;12.70;99.90
45096;DHT22;30858;51.108;8.068;2022-07-10T04:51:52;12.70;99.90
45096;DHT22;30858;51.108;8.068;2022-07-10T04:54:17;12.70;99.90
45096;DHT22;30858;51.108;8.068;2022-07-10T04:56:43;12.60;99.90
45096;DHT22;30858;51.108;8.068;2022-07-10T04:59:09;12.70;99.90
45096;DHT22;30858;51.108;8.068;2022-07-10T05:01:35;12.70;99.90
45096;DHT22;30858;51.108;8.068;2022-07-10T05:04:01;12.70;99.90
45096;DHT22;30858;51.108;8.068;2022-07-10T05:06:26;12.80;99.90
45096;DHT22;30858;51.108;8.068;2022-07-10T05:08:52;12.70;99.90
45096;DHT22;30858;51.108;8.068;2022-07-10T05:11:19;12.80;99.90
45096;DHT22;30858;51.108;8.068;2022-07-10T05:13:44;12.80;99.90
45096;DHT22;30858;51.108;8.068;2022-07-10T05:16:11;12.90;99.90
45096;DHT22;30858;51.108;8.068;2022-07-10T05:18:39;12.90;99.90
45096;DHT22;30858;51.108;8.068;2022-07-10T05:21:05;12.90;99.90
45096;DHT22;30858;51.108;8.068;2022-07-10T05:23:31;12.90;99.90
45096;DHT22;30858;51.108;8.068;2022-07-10T05:25:57;12.90;99.90
45096;DHT22;30858;51.108;8.068;2022-07-10T05:28:22;13.00;99.90
45096;DHT22;30858;51.108;8.068;2022-07-10T05:30:48;13.10;99.90
45096;DHT22;30858;51.108;8.068;2022-07-10T05:33:15;13.10;99.90
45096;DHT22;30858;51.108;8.068;2022-07-10T05:35:40;13.10;99.90
45096;DHT22;30858;51.108;8.068;2022-07-10T05:38:06;13.20;99.90
45096;DHT22;30858;51.108;8.068;2022-07-10T05:40:31;13.20;99.90
45096;DHT22;30858;51.108;8.068;2022-07-10T05:42:57;13.20;99.90
45096;DHT22;30858;51.108;8.068;2022-07-10T05:45:23;13.20;99.90
45096;DHT22;30858;51.108;8.068;2022-07-10T05:47:48;13.20;99.90
45096;DHT22;30858;51.108;8.068;2022-07-10T05:50:14;13.30;99.90
45096;DHT22;30858;51.108;8.068;2022-07-10T05:52:40;13.30;99.90
45096;DHT22;30858;51.108;8.068;2022-07-10T05:55:06;13.30;99.90
45096;DHT22;30858;51.108;8.068;2022-07-10T05:57:32;13.30;99.90
45096;DHT22;30858;51.108;8.068;2022-07-10T05:59:57;13.20;99.90
45096;DHT22;30858;51.108;8.068;2022-07-10T06:02:23;13.30;99.90
45096;DHT22;30858;51.108;8.068;2022-07-10T06:04:49;13.40;99.90
45096;DHT22;30858;51.108;8.068;2022-07-10T06:07:15;13.60;99.90
45096;DHT22;30858;51.108;8.068;2022-07-10T06:09:41;13.70;99.90
45096;DHT22;30858;51.108;8.068;2022-07-10T06:12:07;13.70;99.90
45096;DHT22;30858;51.108;8.068;2022-07-10T06:14:32;13.70;99.90
45096;DHT22;30858;51.108;8.068;2022-07-10T06:16:58;13.60;99.90
45096;DHT22;30858;51.108;8.068;2022-07-10T06:19:24;13.50;99.90
45096;DHT22;30858;51.108;8.068;2022-07-10T06:21:49;13.50;99.90
45096;DHT22;30858;51.108;8.068;2022-07-10T06:24:35;13.40;99.90
45096;DHT22;30858;51.108;8.068;2022-07-10T06:27:00;13.50;99.90
45096;DHT22;30858;51.108;8.068;2022-07-10T06:29:26;13.50;99.90
45096;DHT22;30858;51.108;8.068;2022-07-10T06:31:51;13.50;99.90
45096;DHT22;30858;51.108;8.068;2022-07-10T06:34:17;13.50;99.90
45096;DHT22;30858;51.108;8.068;2022-07-10T06:36:43;13.60;99.90
45096;DHT22;30858;51.108;8.068;2022-07-10T06:39:08;13.60;99.90
45096;DHT22;30858;51.108;8.068;2022-07-10T06:41:34;13.70;99.90
45096;DHT22;30858;51.108;8.068;2022-07-10T06:43:59;13.80;99.90
45096;DHT22;30858;51.108;8.068;2022-07-10T06:46:26;13.80;99.90
45096;DHT22;30858;51.108;8.068;2022-07-10T06:48:52;13.80;99.90
45096;DHT22;30858;51.108;8.068;2022-07-10T06:51:18;13.70;99.90
45096;DHT22;30858;51.108;8.068;2022-07-10T06:53:44;13.70;99.90
45096;DHT22;30858;51.108;8.068;2022-07-10T06:56:10;13.80;99.90
45096;DHT22;30858;51.108;8.068;2022-07-10T06:58:35;14.10;99.90
45096;DHT22;30858;51.108;8.068;2022-07-10T07:01:01;14.20;99.90
45096;DHT22;30858;51.108;8.068;2022-07-10T07:03:27;14.20;99.90
45096;DHT22;30858;51.108;8.068;2022-07-10T07:05:52;14.10;99.90
45096;DHT22;30858;51.108;8.068;2022-07-10T07:08:18;14.10;99.90
45096;DHT22;30858;51.108;8.068;2022-07-10T07:10:43;14.00;99.90
45096;DHT22;30858;51.108;8.068;2022-07-10T07:13:10;14.00;99.90
45096;DHT22;30858;51.108;8.068;2022-07-10T07:15:35;14.00;99.90
45096;DHT22;30858;51.108;8.068;2022-07-10T07:18:05;14.10;99.90
45096;DHT22;30858;51.108;8.068;2022-07-10T07:20:37;14.20;99.90
45096;DHT22;30858;51.108;8.068;2022-07-10T07:23:22;14.20;99.90
45096;DHT22;30858;51.108;8.068;2022-07-10T07:25:48;14.40;99.90
45096;DHT22;30858;51.108;8.068;2022-07-10T07:28:17;14.40;99.90
45096;DHT22;30858;51.108;8.068;2022-07-10T07:30:44;14.50;99.90
45096;DHT22;30858;51.108;8.068;2022-07-10T07:33:10;14.70;99.90
45096;DHT22;30858;51.108;8.068;2022-07-10T07:35:36;14.70;99.90
45096;DHT22;30858;51.108;8.068;2022-07-10T07:38:02;14.90;99.90
45096;DHT22;30858;51.108;8.068;2022-07-10T07:40:28;15.00;99.90
45096;DHT22;30858;51.108;8.068;2022-07-10T07:42:55;15.20;99.90
45096;DHT22;30858;51.108;8.068;2022-07-10T07:45:21;15.50;99.90
45096;DHT22;30858;51.108;8.068;2022-07-10T07:50:18;16.20;99.90
45096;DHT22;30858;51.108;8.068;2022-07-10T07:52:45;16.70;99.90
45096;DHT22;30858;51.108;8.068;2022-07-10T07:55:12;17.10;99.90
45096;DHT22;30858;51.108;8.068;2022-07-10T07:57:38;17.30;99.90
45096;DHT22;30858;51.108;8.068;2022-07-10T08:00:05;17.00;99.90
45096;DHT22;30858;51.108;8.068;2022-07-10T08:02:32;16.60;99.90
45096;DHT22;30858;51.108;8.068;2022-07-10T08:04:58;16.00;99.90
45096;DHT22;30858;51.108;8.068;2022-07-10T08:07:39;15.70;99.90
45096;DHT22;30858;51.108;8.068;2022-07-10T08:10:08;15.50;99.90
45096;DHT22;30858;51.108;8.068;2022-07-10T08:12:34;15.60;99.90
45096;DHT22;30858;51.108;8.068;2022-07-10T08:15:00;15.70;99.90
45096;DHT22;30858;51.108;8.068;2022-07-10T08:17:26;15.90;99.90
45096;DHT22;30858;51.108;8.068;2022-07-10T08:19:52;16.30;99.90
45096;DHT22;30858;51.108;8.068;2022-07-10T08:22:18;16.80;99.90
45096;DHT22;30858;51.108;8.068;2022-07-10T08:24:44;17.20;99.90
45096;DHT22;30858;51.108;8.068;2022-07-10T08:27:09;17.60;99.90
45096;DHT22;30858;51.108;8.068;2022-07-10T08:29:35;17.80;99.90
45096;DHT22;30858;51.108;8.068;2022-07-10T08:32:01;17.70;99.90
45096;DHT22;30858;51.108;8.068;2022-07-10T08:34:27;17.20;99.90
45096;DHT22;30858;51.108;8.068;2022-07-10T08:36:55;16.80;99.90
45096;DHT22;30858;51.108;8.068;2022-07-10T08:39:20;16.60;99.90
45096;DHT22;30858;51.108;8.068;2022-07-10T08:41:47;16.50;99.90
45096;DHT22;30858;51.108;8.068;2022-07-10T08:44:16;16.40;99.90
45096;DHT22;30858;51.108;8.068;2022-07-10T08:46:43;16.50;99.90
45096;DHT22;30858;51.108;8.068;2022-07-10T08:49:09;16.70;99.90
45096;DHT22;30858;51.108;8.068;2022-07-10T08:51:47;16.70;99.90
45096;DHT22;30858;51.108;8.068;2022-07-10T08:54:14;16.80;99.90
45096;DHT22;30858;51.108;8.068;2022-07-10T08:56:41;16.90;99.90
45096;DHT22;30858;51.108;8.068;2022-07-10T08:59:07;17.00;99.90
45096;DHT22;30858;51.108;8.068;2022-07-10T09:01:33;16.80;99.90
45096;DHT22;30858;51.108;8.068;2022-07-10T09:03:59;16.60;99.90
45096;DHT22;30858;51.108;8.068;2022-07-10T09:06:29;16.60;99.90
45096;DHT22;30858;51.108;8.068;2022-07-10T09:09:13;16.60;99.90
45096;DHT22;30858;51.108;8.068;2022-07-10T09:11:40;16.60;99.90
45096;DHT22;30858;51.108;8.068;2022-07-10T09:14:10;16.70;99.90
45096;DHT22;30858;51.108;8.068;2022-07-10T09:16:38;16.50;99.90
45096;DHT22;30858;51.108;8.068;2022-07-10T09:19:25;16.30;99.90
45096;DHT22;30858;51.108;8.068;2022-07-10T09:21:53;16.20;99.90
45096;DHT22;30858;51.108;8.068;2022-07-10T09:24:21;16.10;99.90
45096;DHT22;30858;51.108;8.068;2022-07-10T09:29:21;16.00;99.90
45096;DHT22;30858;51.108;8.068;2022-07-10T09:31:51;16.00;99.90
45096;DHT22;30858;51.108;8.068;2022-07-10T09:34:18;16.10;99.90
45096;DHT22;30858;51.108;8.068;2022-07-10T09:36:59;16.10;99.90
45096;DHT22;30858;51.108;8.068;2022-07-10T09:39:24;16.00;99.90
45096;DHT22;30858;51.108;8.068;2022-07-10T09:41:50;16.10;99.90
45096;DHT22;30858;51.108;8.068;2022-07-10T09:44:15;16.10;99.90
45096;DHT22;30858;51.108;8.068;2022-07-10T09:46:41;15.90;99.90
45096;DHT22;30858;51.108;8.068;2022-07-10T09:49:12;15.90;99.90
45096;DHT22;30858;51.108;8.068;2022-07-10T09:51:42;15.90;99.90
45096;DHT22;30858;51.108;8.068;2022-07-10T09:54:09;15.80;99.90
45096;DHT22;30858;51.108;8.068;2022-07-10T09:56:51;15.70;99.90
45096;DHT22;30858;51.108;8.068;2022-07-10T09:59:20;15.70;99.90
45096;DHT22;30858;51.108;8.068;2022-07-10T10:01:50;15.70;99.90
45096;DHT22;30858;51.108;8.068;2022-07-10T10:04:18;15.70;99.90
45096;DHT22;30858;51.108;8.068;2022-07-10T10:06:56;15.60;99.90
45096;DHT22;30858;51.108;8.068;2022-07-10T10:09:38;15.60;99.90
45096;DHT22;30858;51.108;8.068;2022-07-10T10:12:47;15.50;99.90
45096;DHT22;30858;51.108;8.068;2022-07-10T10:15:16;15.50;99.90
45096;DHT22;30858;51.108;8.068;2022-07-10T10:17:44;15.30;99.90
45096;DHT22;30858;51.108;8.068;2022-07-10T10:20:11;15.30;99.90
45096;DHT22;30858;51.108;8.068;2022-07-10T10:22:55;15.30;99.90
45096;DHT22;30858;51.108;8.068;2022-07-10T10:25:24;15.50;99.90
45096;DHT22;30858;51.108;8.068;2022-07-10T10:27:50;15.70;99.90
45096;DHT22;30858;51.108;8.068;2022-07-10T10:30:16;15.80;99.90
45096;DHT22;30858;51.108;8.068;2022-07-10T10:32:42;15.80;99.90
45096;DHT22;30858;51.108;8.068;2022-07-10T10:35:08;15.80;99.90
45096;DHT22;30858;51.108;8.068;2022-07-10T10:37:40;15.90;99.90
45096;DHT22;30858;51.108;8.068;2022-07-10T10:40:31;16.20;99.90
45096;DHT22;30858;51.108;8.068;2022-07-10T10:42:58;16.10;99.90
45096;DHT22;30858;51.108;8.068;2022-07-10T10:45:32;16.10;99.90
45096;DHT22;30858;51.108;8.068;2022-07-10T10:48:06;16.10;99.90
45096;DHT22;30858;51.108;8.068;2022-07-10T10:50:52;16.30;99.90
45096;DHT22;30858;51.108;8.068;2022-07-10T10:53:23;16.30;99.90
45096;DHT22;30858;51.108;8.068;2022-07-10T11:01:05;16.70;99.90
45096;DHT22;30858;51.108;8.068;2022-07-10T11:03:31;16.70;99.90
45096;DHT22;30858;51.108;8.068;2022-07-10T11:05:57;16.80;99.90
45096;DHT22;30858;51.108;8.068;2022-07-10T11:08:38;16.80;99.90
45096;DHT22;30858;51.108;8.068;2022-07-10T11:13:57;16.60;99.90
45096;DHT22;30858;51.108;8.068;2022-07-10T11:16:23;16.50;99.90
45096;DHT22;30858;51.108;8.068;2022-07-10T11:18:52;16.40;99.90
45096;DHT22;30858;51.108;8.068;2022-07-10T11:21:23;16.50;99.90
45096;DHT22;30858;51.108;8.068;2022-07-10T11:27:09;16.30;99.90
45096;DHT22;30858;51.108;8.068;2022-07-10T11:29:37;16.10;99.90
45096;DHT22;30858;51.108;8.068;2022-07-10T11:32:03;16.00;99.90
45096;DHT22;30858;51.108;8.068;2022-07-10T11:34:35;16.00;99.90
45096;DHT22;30858;51.108;8.068;2022-07-10T11:37:14;16.00;99.90
45096;DHT22;30858;51.108;8.068;2022-07-10T11:39:40;15.90;99.90
45096;DHT22;30858;51.108;8.068;2022-07-10T11:42:06;15.80;99.90
45096;DHT22;30858;51.108;8.068;2022-07-10T11:44:32;15.80;99.90
45096;DHT22;30858;51.108;8.068;2022-07-10T11:46:57;15.90;99.90
45096;DHT22;30858;51.108;8.068;2022-07-10T11:49:25;15.80;99.90
45096;DHT22;30858;51.108;8.068;2022-07-10T11:51:50;15.80;99.90
45096;DHT22;30858;51.108;8.068;2022-07-10T11:54:17;15.80;99.90
45096;DHT22;30858;51.108;8.068;2022-07-10T11:56:49;15.80;99.90
45096;DHT22;30858;51.108;8.068;2022-07-10T11:59:15;16.00;99.90
45096;DHT22;30858;51.108;8.068;2022-07-10T12:01:46;15.90;99.90
45096;DHT22;30858;51.108;8.068;2022-07-10T12:04:17;16.10;99.90
45096;DHT22;30858;51.108;8.068;2022-07-10T12:06:44;16.20;99.90
45096;DHT22;30858;51.108;8.068;2022-07-10T12:09:16;16.00;99.90
45096;DHT22;30858;51.108;8.068;2022-07-10T12:11:43;16.10;99.90
45096;DHT22;30858;51.108;8.068;2022-07-10T12:14:19;16.20;99.90
45096;DHT22;30858;51.108;8.068;2022-07-10T12:16:47;16.10;99.90
45096;DHT22;30858;51.108;8.068;2022-07-10T12:19:18;16.00;99.90
45096;DHT22;30858;51.108;8.068;2022-07-10T12:21:46;16.10;99.90
45096;DHT22;30858;51.108;8.068;2022-07-10T12:24:13;16.20;99.90
45096;DHT22;30858;51.108;8.068;2022-07-10T12:26:42;15.90;99.90
45096;DHT22;30858;51.108;8.068;2022-07-10T12:29:18;15.80;99.90
45096;DHT22;30858;51.108;8.068;2022-07-10T12:31:44;15.80;99.90
45096;DHT22;30858;51.108;8.068;2022-07-10T12:34:10;15.80;99.90
45096;DHT22;30858;51.108;8.068;2022-07-10T12:36:46;15.80;99.90
45096;DHT22;30858;51.108;8.068;2022-07-10T12:39:14;15.90;99.90
45096;DHT22;30858;51.108;8.068;2022-07-10T12:47:04;15.60;99.90
45096;DHT22;30858;51.108;8.068;2022-07-10T12:52:28;15.50;99.90
45096;DHT22;30858;51.108;8.068;2022-07-10T12:55:20;15.40;99.90
45096;DHT22;30858;51.108;8.068;2022-07-10T12:57:54;15.40;99.90
45096;DHT22;30858;51.108;8.068;2022-07-10T13:00:28;15.30;99.90
45096;DHT22;30858;51.108;8.068;2022-07-10T13:03:04;15.40;99.90
45096;DHT22;30858;51.108;8.068;2022-07-10T13:05:37;15.50;99.90
45096;DHT22;30858;51.108;8.068;2022-07-10T13:10:43;15.50;99.90
45096;DHT22;30858;51.108;8.068;2022-07-10T13:13:09;15.50;99.90
45096;DHT22;30858;51.108;8.068;2022-07-10T13:15:35;15.60;99.90
45096;DHT22;30858;51.108;8.068;2022-07-10T13:18:18;15.60;99.90
45096;DHT22;30858;51.108;8.068;2022-07-10T13:20:44;15.60;99.90
45096;DHT22;30858;51.108;8.068;2022-07-10T13:23:10;15.80;99.90
45096;DHT22;30858;51.108;8.068;2022-07-10T13:25:39;15.80;99.90
45096;DHT22;30858;51.108;8.068;2022-07-10T13:28:06;15.80;99.90
45096;DHT22;30858;51.108;8.068;2022-07-10T13:30:35;15.50;99.90
45096;DHT22;30858;51.108;8.068;2022-07-10T13:33:01;15.60;99.90
45096;DHT22;30858;51.108;8.068;2022-07-10T13:35:30;15.70;99.90
45096;DHT22;30858;51.108;8.068;2022-07-10T13:37:57;15.50;99.90
45096;DHT22;30858;51.108;8.068;2022-07-10T13:40:29;15.50;99.90
45096;DHT22;30858;51.108;8.068;2022-07-10T13:42:56;15.40;99.90
45096;DHT22;30858;51.108;8.068;2022-07-10T13:45:22;15.40;99.90
45096;DHT22;30858;51.108;8.068;2022-07-10T13:47:48;15.30;99.90
45096;DHT22;30858;51.108;8.068;2022-07-10T13:50:14;15.40;99.90
45096;DHT22;30858;51.108;8.068;2022-07-10T13:52:39;15.20;99.90
45096;DHT22;30858;51.108;8.068;2022-07-10T13:55:05;15.30;99.90
45096;DHT22;30858;51.108;8.068;2022-07-10T13:57:32;15.20;99.90
45096;DHT22;30858;51.108;8.068;2022-07-10T13:59:58;15.00;99.90
45096;DHT22;30858;51.108;8.068;2022-07-10T14:02:23;15.20;99.90
45096;DHT22;30858;51.108;8.068;2022-07-10T14:04:49;15.20;99.90
45096;DHT22;30858;51.108;8.068;2022-07-10T14:07:14;15.30;99.90
45096;DHT22;30858;51.108;8.068;2022-07-10T14:09:40;15.50;99.90
45096;DHT22;30858;51.108;8.068;2022-07-10T14:12:06;15.70;99.90
45096;DHT22;30858;51.108;8.068;2022-07-10T14:14:31;15.50;99.90
45096;DHT22;30858;51.108;8.068;2022-07-10T14:16:57;15.50;99.90
45096;DHT22;30858;51.108;8.068;2022-07-10T14:19:23;15.50;99.90
45096;DHT22;30858;51.108;8.068;2022-07-10T14:21:48;15.60;99.90
45096;DHT22;30858;51.108;8.068;2022-07-10T14:24:14;15.60;99.90
45096;DHT22;30858;51.108;8.068;2022-07-10T14:26:40;15.60;99.90
45096;DHT22;30858;51.108;8.068;2022-07-10T14:29:05;15.60;99.90
45096;DHT22;30858;51.108;8.068;2022-07-10T14:31:32;15.50;99.90
45096;DHT22;30858;51.108;8.068;2022-07-10T14:33:57;15.50;99.90
45096;DHT22;30858;51.108;8.068;2022-07-10T14:36:23;15.50;99.90
45096;DHT22;30858;51.108;8.068;2022-07-10T14:38:57;15.50;99.90
45096;DHT22;30858;51.108;8.068;2022-07-10T14:41:24;15.50;99.90
45096;DHT22;30858;51.108;8.068;2022-07-10T14:43:50;15.40;99.90
45096;DHT22;30858;51.108;8.068;2022-07-10T14:46:16;15.30;99.90
45096;DHT22;30858;51.108;8.068;2022-07-10T14:48:42;15.40;99.90
45096;DHT22;30858;51.108;8.068;2022-07-10T14:51:08;15.50;99.90
45096;DHT22;30858;51.108;8.068;2022-07-10T14:53:34;15.40;99.90
45096;DHT22;30858;51.108;8.068;2022-07-10T14:56:04;15.40;99.90
45096;DHT22;30858;51.108;8.068;2022-07-10T14:58:31;15.30;99.90
45096;DHT22;30858;51.108;8.068;2022-07-10T15:00:56;15.20;99.90
45096;DHT22;30858;51.108;8.068;2022-07-10T15:03:22;15.40;99.90
45096;DHT22;30858;51.108;8.068;2022-07-10T15:05:48;15.50;99.90
45096;DHT22;30858;51.108;8.068;2022-07-10T15:08:24;15.60;99.90
45096;DHT22;30858;51.108;8.068;2022-07-10T15:10:50;15.60;99.90
45096;DHT22;30858;51.108;8.068;2022-07-10T15:13:15;15.70;99.90
45096;DHT22;30858;51.108;8.068;2022-07-10T15:15:41;15.70;99.90
45096;DHT22;30858;51.108;8.068;2022-07-10T15:18:07;15.90;99.90
45096;DHT22;30858;51.108;8.068;2022-07-10T15:20:34;15.70;99.90
45096;DHT22;30858;51.108;8.068;2022-07-10T15:23:00;15.70;99.90
45096;DHT22;30858;51.108;8.068;2022-07-10T15:25:26;15.90;99.90
45096;DHT22;30858;51.108;8.068;2022-07-10T15:27:52;15.90;99.90
45096;DHT22;30858;51.108;8.068;2022-07-10T15:30:18;15.90;99.90
45096;DHT22;30858;51.108;8.068;2022-07-10T15:32:44;15.90;99.90
45096;DHT22;30858;51.108;8.068;2022-07-10T15:35:11;16.00;99.90
45096;DHT22;30858;51.108;8.068;2022-07-10T15:37:37;16.10;99.90
45096;DHT22;30858;51.108;8.068;2022-07-10T15:40:03;16.20;99.90
45096;DHT22;30858;51.108;8.068;2022-07-10T15:42:29;16.20;99.90
45096;DHT22;30858;51.108;8.068;2022-07-10T15:44:55;16.30;99.90
45096;DHT22;30858;51.108;8.068;2022-07-10T15:47:20;16.20;99.90
45096;DHT22;30858;51.108;8.068;2022-07-10T15:49:46;16.30;99.90
45096;DHT22;30858;51.108;8.068;2022-07-10T15:52:12;16.30;99.90
45096;DHT22;30858;51.108;8.068;2022-07-10T15:54:37;16.20;99.90
45096;DHT22;30858;51.108;8.068;2022-07-10T15:57:03;16.00;99.90
45096;DHT22;30858;51.108;8.068;2022-07-10T15:59:29;16.00;99.90